Ana Sayfa
METAR-TAF:

METAR-TAF

Havaalanları :

Libreville Leon M'ba Uluslararası Havalimanı

Libreville, Gabon

Enlem: 00-27N, Boylam: 009-25E, yükseklik: 12 m

Güncel hava durumu gözlemi

Rapor saat 00:30 UTC de 10 dakika önce yapıldı.
Rüzgar güneydan 6 kt
Sıcaklık 25°C
Nem 83%
Basınç 1015 hPa
Görüş mesafesi 10 km veya daha fazla
1600 ft yükseklikte parçalı bulutlu

METAR: FOOL 210030Z 18006KT 9999 SCT016 25/22 Q1015 NOSIG

Saat: 01:40 (00:40 UTC)

Tahmin

Rapor saat 23:00 UTC de 1 saat ve 40 dakika önce yapıldı.
Ayın 21'si saat 00 UTC'den ayın 22'si saat 06 UTC'ye kadar geçerli Tahmin
Rüzgar güneydan 4 kt
Görüş mesafesi 10 km veya daha fazla
1400 ft yükseklikte parçalı bulutlu
3000 ft yükseklikte parçalı çok bulutlu

TAF: FOOL 202300Z 2100/2206 18004KT 9999 SCT014 BKN030

4.000'den fazla havaalanı için hava durumu gözlemleri ve tahminleri (METAR ve TAF raporları).

Kullanılabilir istasyonlar harita üzerinde sarı ve kırmızı noktalarla gösterilir.

İstasyonun adını görmek için fareyi noktanın üzerinde gezdirin.

Sonrasında hava gözlem ve tahminlerini görmek için tıklayın.

Haritayı değiştirmek için: yaklaştırmak için siyah artı işaretli yeşil düğmeye ve uzaklaştırmak için de eksi işaretli düğmeye hızla tıklayın; bitişik haritalar için yeşil okları kullanın.


METAR-TAF: